sensor_id;sensor_type;location;lat;lon;timestamp;temperature;humidity
68844;DHT22;55850;51.244;6.824;2022-08-21T00:03:20;19.92;67.04
68844;DHT22;55850;51.244;6.824;2022-08-21T00:08:26;19.81;67.34
68844;DHT22;55850;51.244;6.824;2022-08-21T00:13:35;19.95;66.75
68844;DHT22;55850;51.244;6.824;2022-08-21T00:18:41;19.85;67.03
68844;DHT22;55850;51.244;6.824;2022-08-21T00:23:46;19.92;66.71
68844;DHT22;55850;51.244;6.824;2022-08-21T00:28:54;19.92;66.72
68844;DHT22;55850;51.244;6.824;2022-08-21T00:34:02;19.95;67.01
68844;DHT22;55850;51.244;6.824;2022-08-21T00:39:10;19.74;67.39
68844;DHT22;55850;51.244;6.824;2022-08-21T00:44:18;19.96;67.21
68844;DHT22;55850;51.244;6.824;2022-08-21T00:49:23;19.75;67.74
68844;DHT22;55850;51.244;6.824;2022-08-21T00:54:31;19.91;67.25
68844;DHT22;55850;51.244;6.824;2022-08-21T00:59:40;19.68;68.09
68844;DHT22;55850;51.244;6.824;2022-08-21T01:04:48;19.71;68.00
68844;DHT22;55850;51.244;6.824;2022-08-21T01:09:55;19.61;68.20
68844;DHT22;55850;51.244;6.824;2022-08-21T01:15:05;19.34;69.05
68844;DHT22;55850;51.244;6.824;2022-08-21T01:20:11;19.34;68.86
68844;DHT22;55850;51.244;6.824;2022-08-21T01:25:20;19.31;68.89
68844;DHT22;55850;51.244;6.824;2022-08-21T01:30:27;19.27;69.03
68844;DHT22;55850;51.244;6.824;2022-08-21T01:35:33;19.09;69.32
68844;DHT22;55850;51.244;6.824;2022-08-21T01:40:41;19.07;69.60
68844;DHT22;55850;51.244;6.824;2022-08-21T01:45:47;19.03;69.83
68844;DHT22;55850;51.244;6.824;2022-08-21T01:50:53;19.03;69.65
68844;DHT22;55850;51.244;6.824;2022-08-21T01:56:03;19.15;69.44
68844;DHT22;55850;51.244;6.824;2022-08-21T02:01:14;19.19;69.22
68844;DHT22;55850;51.244;6.824;2022-08-21T02:06:20;19.12;69.20
68844;DHT22;55850;51.244;6.824;2022-08-21T02:11:28;18.98;69.64
68844;DHT22;55850;51.244;6.824;2022-08-21T02:16:34;19.12;69.32
68844;DHT22;55850;51.244;6.824;2022-08-21T02:21:41;19.24;68.59
68844;DHT22;55850;51.244;6.824;2022-08-21T02:26:49;19.06;69.06
68844;DHT22;55850;51.244;6.824;2022-08-21T02:31:55;18.96;69.38
68844;DHT22;55850;51.244;6.824;2022-08-21T02:37:01;18.78;69.99
68844;DHT22;55850;51.244;6.824;2022-08-21T02:42:09;19.13;68.51
68844;DHT22;55850;51.244;6.824;2022-08-21T02:47:15;18.65;69.80
68844;DHT22;55850;51.244;6.824;2022-08-21T02:52:21;18.68;69.76
68844;DHT22;55850;51.244;6.824;2022-08-21T02:57:29;18.76;69.06
68844;DHT22;55850;51.244;6.824;2022-08-21T03:02:35;18.52;69.82
68844;DHT22;55850;51.244;6.824;2022-08-21T03:07:41;18.36;70.37
68844;DHT22;55850;51.244;6.824;2022-08-21T03:12:50;18.34;70.65
68844;DHT22;55850;51.244;6.824;2022-08-21T03:17:57;18.23;70.80
68844;DHT22;55850;51.244;6.824;2022-08-21T03:23:03;18.10;71.38
68844;DHT22;55850;51.244;6.824;2022-08-21T03:28:21;18.04;71.62
68844;DHT22;55850;51.244;6.824;2022-08-21T03:33:26;17.86;71.65
68844;DHT22;55850;51.244;6.824;2022-08-21T03:38:34;17.94;71.74
68844;DHT22;55850;51.244;6.824;2022-08-21T03:43:43;17.96;71.60
68844;DHT22;55850;51.244;6.824;2022-08-21T03:48:48;17.80;71.92
68844;DHT22;55850;51.244;6.824;2022-08-21T03:53:55;17.72;72.12
68844;DHT22;55850;51.244;6.824;2022-08-21T03:59:03;17.61;72.39
68844;DHT22;55850;51.244;6.824;2022-08-21T04:04:09;17.55;72.40
68844;DHT22;55850;51.244;6.824;2022-08-21T04:09:15;17.50;72.61
68844;DHT22;55850;51.244;6.824;2022-08-21T04:14:23;17.52;72.24
68844;DHT22;55850;51.244;6.824;2022-08-21T04:19:29;17.94;71.37
68844;DHT22;55850;51.244;6.824;2022-08-21T04:24:35;18.01;70.18
68844;DHT22;55850;51.244;6.824;2022-08-21T04:29:43;18.01;70.12
68844;DHT22;55850;51.244;6.824;2022-08-21T04:34:48;17.73;70.80
68844;DHT22;55850;51.244;6.824;2022-08-21T04:39:54;17.76;70.74
68844;DHT22;55850;51.244;6.824;2022-08-21T04:45:05;17.65;70.75
68844;DHT22;55850;51.244;6.824;2022-08-21T04:50:12;17.49;71.55
68844;DHT22;55850;51.244;6.824;2022-08-21T04:55:28;17.32;71.92
68844;DHT22;55850;51.244;6.824;2022-08-21T05:00:37;17.55;71.42
68844;DHT22;55850;51.244;6.824;2022-08-21T05:05:43;17.39;71.67
68844;DHT22;55850;51.244;6.824;2022-08-21T05:10:50;17.31;72.05
68844;DHT22;55850;51.244;6.824;2022-08-21T05:16:05;17.31;72.33
68844;DHT22;55850;51.244;6.824;2022-08-21T05:21:10;17.39;71.80
68844;DHT22;55850;51.244;6.824;2022-08-21T05:26:19;17.61;71.46
68844;DHT22;55850;51.244;6.824;2022-08-21T05:31:27;17.79;70.67
68844;DHT22;55850;51.244;6.824;2022-08-21T05:36:32;17.85;70.15
68844;DHT22;55850;51.244;6.824;2022-08-21T05:41:38;18.71;68.20
68844;DHT22;55850;51.244;6.824;2022-08-21T05:46:49;18.95;67.65
68844;DHT22;55850;51.244;6.824;2022-08-21T05:51:54;19.70;65.77
68844;DHT22;55850;51.244;6.824;2022-08-21T05:57:00;20.19;64.44
68844;DHT22;55850;51.244;6.824;2022-08-21T06:02:10;20.93;62.84
68844;DHT22;55850;51.244;6.824;2022-08-21T06:07:15;21.12;61.96
68844;DHT22;55850;51.244;6.824;2022-08-21T06:12:21;21.28;61.45
68844;DHT22;55850;51.244;6.824;2022-08-21T06:17:30;21.43;61.35
68844;DHT22;55850;51.244;6.824;2022-08-21T06:22:35;21.96;60.11
68844;DHT22;55850;51.244;6.824;2022-08-21T06:27:41;22.01;59.65
68844;DHT22;55850;51.244;6.824;2022-08-21T06:32:49;23.15;58.21
68844;DHT22;55850;51.244;6.824;2022-08-21T06:37:55;23.51;56.61
68844;DHT22;55850;51.244;6.824;2022-08-21T06:43:06;23.54;55.55
68844;DHT22;55850;51.244;6.824;2022-08-21T06:48:19;23.50;56.08
68844;DHT22;55850;51.244;6.824;2022-08-21T06:53:25;22.89;56.08
68844;DHT22;55850;51.244;6.824;2022-08-21T06:58:30;23.51;55.31
68844;DHT22;55850;51.244;6.824;2022-08-21T07:03:40;24.33;51.84
68844;DHT22;55850;51.244;6.824;2022-08-21T07:08:46;24.21;52.78
68844;DHT22;55850;51.244;6.824;2022-08-21T07:13:52;25.35;51.27
68844;DHT22;55850;51.244;6.824;2022-08-21T07:19:01;26.24;49.23
68844;DHT22;55850;51.244;6.824;2022-08-21T07:24:07;25.07;49.75
68844;DHT22;55850;51.244;6.824;2022-08-21T07:29:13;25.44;49.49
68844;DHT22;55850;51.244;6.824;2022-08-21T07:34:21;25.31;50.16
68844;DHT22;55850;51.244;6.824;2022-08-21T07:39:26;25.61;49.29
68844;DHT22;55850;51.244;6.824;2022-08-21T07:44:32;25.99;50.07
68844;DHT22;55850;51.244;6.824;2022-08-21T07:49:41;27.05;47.20
68844;DHT22;55850;51.244;6.824;2022-08-21T08:08:20;27.15;46.76
68844;DHT22;55850;51.244;6.824;2022-08-21T08:28:04;27.50;45.36
68844;DHT22;55850;51.244;6.824;2022-08-21T08:33:19;28.00;44.55
68844;DHT22;55850;51.244;6.824;2022-08-21T08:38:25;28.27;43.44
68844;DHT22;55850;51.244;6.824;2022-08-21T08:43:34;27.91;43.77
68844;DHT22;55850;51.244;6.824;2022-08-21T08:48:45;28.19;43.22
68844;DHT22;55850;51.244;6.824;2022-08-21T08:53:58;27.84;43.47
68844;DHT22;55850;51.244;6.824;2022-08-21T08:59:13;28.07;42.95
68844;DHT22;55850;51.244;6.824;2022-08-21T09:04:25;27.74;43.98
68844;DHT22;55850;51.244;6.824;2022-08-21T09:09:40;27.79;44.11
68844;DHT22;55850;51.244;6.824;2022-08-21T09:15:00;27.98;44.03
68844;DHT22;55850;51.244;6.824;2022-08-21T09:20:16;28.32;43.27
68844;DHT22;55850;51.244;6.824;2022-08-21T09:25:25;27.96;43.63
68844;DHT22;55850;51.244;6.824;2022-08-21T09:30:39;27.42;43.44
68844;DHT22;55850;51.244;6.824;2022-08-21T09:35:51;27.38;44.33
68844;DHT22;55850;51.244;6.824;2022-08-21T09:41:00;27.32;44.76
68844;DHT22;55850;51.244;6.824;2022-08-21T09:46:19;26.92;45.47
68844;DHT22;55850;51.244;6.824;2022-08-21T09:51:28;26.94;45.52
68844;DHT22;55850;51.244;6.824;2022-08-21T09:56:38;27.19;45.26
68844;DHT22;55850;51.244;6.824;2022-08-21T10:02:03;26.80;46.18
68844;DHT22;55850;51.244;6.824;2022-08-21T10:07:21;27.53;44.21
68844;DHT22;55850;51.244;6.824;2022-08-21T10:12:36;27.56;42.97
68844;DHT22;55850;51.244;6.824;2022-08-21T10:17:53;27.76;43.90
68844;DHT22;55850;51.244;6.824;2022-08-21T10:23:11;28.04;43.30
68844;DHT22;55850;51.244;6.824;2022-08-21T10:28:26;27.28;42.45
68844;DHT22;55850;51.244;6.824;2022-08-21T10:33:42;27.50;42.31
68844;DHT22;55850;51.244;6.824;2022-08-21T10:38:58;28.01;43.72
68844;DHT22;55850;51.244;6.824;2022-08-21T10:44:30;28.53;42.23
68844;DHT22;55850;51.244;6.824;2022-08-21T10:49:49;28.11;43.05
68844;DHT22;55850;51.244;6.824;2022-08-21T10:55:02;27.67;43.28
68844;DHT22;55850;51.244;6.824;2022-08-21T11:00:14;27.69;43.17
68844;DHT22;55850;51.244;6.824;2022-08-21T11:05:27;27.61;43.19
68844;DHT22;55850;51.244;6.824;2022-08-21T11:10:57;27.98;43.06
68844;DHT22;55850;51.244;6.824;2022-08-21T11:16:10;28.27;42.23
68844;DHT22;55850;51.244;6.824;2022-08-21T11:21:39;28.80;41.65
68844;DHT22;55850;51.244;6.824;2022-08-21T11:26:51;28.08;43.15
68844;DHT22;55850;51.244;6.824;2022-08-21T11:32:37;28.59;41.80
68844;DHT22;55850;51.244;6.824;2022-08-21T11:38:12;28.05;42.90
68844;DHT22;55850;51.244;6.824;2022-08-21T11:43:25;28.39;42.20
68844;DHT22;55850;51.244;6.824;2022-08-21T11:48:41;27.43;42.73
68844;DHT22;55850;51.244;6.824;2022-08-21T11:53:58;27.88;43.13
68844;DHT22;55850;51.244;6.824;2022-08-21T11:59:11;27.53;42.67
68844;DHT22;55850;51.244;6.824;2022-08-21T12:04:25;27.69;43.10
68844;DHT22;55850;51.244;6.824;2022-08-21T12:09:35;28.12;42.91
68844;DHT22;55850;51.244;6.824;2022-08-21T12:14:46;27.71;42.91
68844;DHT22;55850;51.244;6.824;2022-08-21T12:19:59;27.18;43.41
68844;DHT22;55850;51.244;6.824;2022-08-21T12:25:16;27.32;44.27
68844;DHT22;55850;51.244;6.824;2022-08-21T12:30:34;27.03;45.15
68844;DHT22;55850;51.244;6.824;2022-08-21T12:35:41;26.92;45.16
68844;DHT22;55850;51.244;6.824;2022-08-21T12:40:53;26.41;44.73
68844;DHT22;55850;51.244;6.824;2022-08-21T12:46:00;26.82;45.33
68844;DHT22;55850;51.244;6.824;2022-08-21T12:51:10;26.60;45.50
68844;DHT22;55850;51.244;6.824;2022-08-21T12:56:21;26.72;44.88
68844;DHT22;55850;51.244;6.824;2022-08-21T13:01:29;26.95;46.00
68844;DHT22;55850;51.244;6.824;2022-08-21T13:06:45;26.81;45.68
68844;DHT22;55850;51.244;6.824;2022-08-21T13:11:54;26.87;44.98
68844;DHT22;55850;51.244;6.824;2022-08-21T13:17:03;26.95;45.18
68844;DHT22;55850;51.244;6.824;2022-08-21T13:22:14;26.81;44.75
68844;DHT22;55850;51.244;6.824;2022-08-21T13:27:39;26.75;45.58
68844;DHT22;55850;51.244;6.824;2022-08-21T13:32:49;26.85;44.60
68844;DHT22;55850;51.244;6.824;2022-08-21T13:37:55;26.67;45.54
68844;DHT22;55850;51.244;6.824;2022-08-21T13:43:10;26.48;45.45
68844;DHT22;55850;51.244;6.824;2022-08-21T13:48:25;26.53;45.16
68844;DHT22;55850;51.244;6.824;2022-08-21T13:53:36;26.61;45.72
68844;DHT22;55850;51.244;6.824;2022-08-21T13:58:53;26.78;45.82
68844;DHT22;55850;51.244;6.824;2022-08-21T14:04:03;26.57;44.83
68844;DHT22;55850;51.244;6.824;2022-08-21T14:09:12;26.44;46.39
68844;DHT22;55850;51.244;6.824;2022-08-21T14:14:24;26.58;45.86
68844;DHT22;55850;51.244;6.824;2022-08-21T14:19:37;26.47;46.29
68844;DHT22;55850;51.244;6.824;2022-08-21T14:24:44;26.16;44.69
68844;DHT22;55850;51.244;6.824;2022-08-21T14:30:10;26.29;44.45
68844;DHT22;55850;51.244;6.824;2022-08-21T14:35:17;26.34;44.70
68844;DHT22;55850;51.244;6.824;2022-08-21T14:40:25;26.41;44.69
68844;DHT22;55850;51.244;6.824;2022-08-21T14:45:34;26.65;44.84
68844;DHT22;55850;51.244;6.824;2022-08-21T14:50:42;26.45;45.21
68844;DHT22;55850;51.244;6.824;2022-08-21T14:55:48;26.67;44.59
68844;DHT22;55850;51.244;6.824;2022-08-21T15:01:14;26.43;44.78
68844;DHT22;55850;51.244;6.824;2022-08-21T15:06:20;26.26;44.87
68844;DHT22;55850;51.244;6.824;2022-08-21T15:11:26;26.22;45.56
68844;DHT22;55850;51.244;6.824;2022-08-21T15:16:47;26.07;45.94
68844;DHT22;55850;51.244;6.824;2022-08-21T15:21:53;26.26;45.13
68844;DHT22;55850;51.244;6.824;2022-08-21T15:27:00;26.30;45.78
68844;DHT22;55850;51.244;6.824;2022-08-21T15:32:19;26.12;46.08
68844;DHT22;55850;51.244;6.824;2022-08-21T15:37:26;26.29;45.49
68844;DHT22;55850;51.244;6.824;2022-08-21T15:42:32;26.09;45.41
68844;DHT22;55850;51.244;6.824;2022-08-21T15:47:43;26.32;45.63
68844;DHT22;55850;51.244;6.824;2022-08-21T15:52:50;26.17;45.22
68844;DHT22;55850;51.244;6.824;2022-08-21T15:57:56;26.17;45.24
68844;DHT22;55850;51.244;6.824;2022-08-21T16:03:11;26.16;45.56
68844;DHT22;55850;51.244;6.824;2022-08-21T16:08:19;26.12;44.94
68844;DHT22;55850;51.244;6.824;2022-08-21T16:13:27;26.12;45.47
68844;DHT22;55850;51.244;6.824;2022-08-21T16:18:37;26.16;44.45
68844;DHT22;55850;51.244;6.824;2022-08-21T16:23:43;26.16;45.45
68844;DHT22;55850;51.244;6.824;2022-08-21T16:28:50;26.16;45.13
68844;DHT22;55850;51.244;6.824;2022-08-21T16:34:02;26.07;44.53
68844;DHT22;55850;51.244;6.824;2022-08-21T16:39:08;25.92;44.75
68844;DHT22;55850;51.244;6.824;2022-08-21T16:44:13;25.99;45.71
68844;DHT22;55850;51.244;6.824;2022-08-21T16:49:22;25.59;44.99
68844;DHT22;55850;51.244;6.824;2022-08-21T16:54:27;25.52;45.05
68844;DHT22;55850;51.244;6.824;2022-08-21T16:59:33;25.48;44.54
68844;DHT22;55850;51.244;6.824;2022-08-21T17:04:41;25.58;44.68
68844;DHT22;55850;51.244;6.824;2022-08-21T17:09:47;25.52;44.95
68844;DHT22;55850;51.244;6.824;2022-08-21T17:14:52;25.49;44.93
68844;DHT22;55850;51.244;6.824;2022-08-21T17:20:02;25.37;45.07
68844;DHT22;55850;51.244;6.824;2022-08-21T17:25:09;25.27;45.14
68844;DHT22;55850;51.244;6.824;2022-08-21T17:30:15;25.30;44.99
68844;DHT22;55850;51.244;6.824;2022-08-21T17:35:24;25.28;45.21
68844;DHT22;55850;51.244;6.824;2022-08-21T17:40:30;25.24;45.31
68844;DHT22;55850;51.244;6.824;2022-08-21T17:45:39;25.00;45.01
68844;DHT22;55850;51.244;6.824;2022-08-21T17:50:47;24.96;45.25
68844;DHT22;55850;51.244;6.824;2022-08-21T17:55:53;24.94;45.82
68844;DHT22;55850;51.244;6.824;2022-08-21T18:00:59;24.87;45.71
68844;DHT22;55850;51.244;6.824;2022-08-21T18:06:08;24.75;46.58
68844;DHT22;55850;51.244;6.824;2022-08-21T18:11:23;24.77;46.90
68844;DHT22;55850;51.244;6.824;2022-08-21T18:16:31;24.86;46.81
68844;DHT22;55850;51.244;6.824;2022-08-21T18:21:42;24.62;47.01
68844;DHT22;55850;51.244;6.824;2022-08-21T18:26:49;24.67;46.22
68844;DHT22;55850;51.244;6.824;2022-08-21T18:31:55;24.49;46.73
68844;DHT22;55850;51.244;6.824;2022-08-21T18:37:04;24.45;46.92
68844;DHT22;55850;51.244;6.824;2022-08-21T18:42:12;24.40;47.52
68844;DHT22;55850;51.244;6.824;2022-08-21T18:47:22;24.51;47.27
68844;DHT22;55850;51.244;6.824;2022-08-21T18:52:31;24.48;47.76
68844;DHT22;55850;51.244;6.824;2022-08-21T18:57:37;24.30;48.34
68844;DHT22;55850;51.244;6.824;2022-08-21T19:02:48;24.26;48.78
68844;DHT22;55850;51.244;6.824;2022-08-21T19:07:57;24.30;49.06
68844;DHT22;55850;51.244;6.824;2022-08-21T19:13:03;24.38;49.33
68844;DHT22;55850;51.244;6.824;2022-08-21T19:18:11;24.17;49.94
68844;DHT22;55850;51.244;6.824;2022-08-21T19:23:20;24.01;50.16
68844;DHT22;55850;51.244;6.824;2022-08-21T19:28:32;23.97;50.43
68844;DHT22;55850;51.244;6.824;2022-08-21T19:33:41;23.97;50.68
68844;DHT22;55850;51.244;6.824;2022-08-21T19:38:54;23.82;50.76
68844;DHT22;55850;51.244;6.824;2022-08-21T19:44:03;24.01;50.51
68844;DHT22;55850;51.244;6.824;2022-08-21T19:49:12;24.17;49.98
68844;DHT22;55850;51.244;6.824;2022-08-21T19:54:25;23.88;50.48
68844;DHT22;55850;51.244;6.824;2022-08-21T19:59:32;23.79;50.79
68844;DHT22;55850;51.244;6.824;2022-08-21T20:04:40;23.84;50.48
68844;DHT22;55850;51.244;6.824;2022-08-21T20:10:09;23.85;49.69
68844;DHT22;55850;51.244;6.824;2022-08-21T20:15:15;23.53;50.57
68844;DHT22;55850;51.244;6.824;2022-08-21T20:20:24;23.57;50.35
68844;DHT22;55850;51.244;6.824;2022-08-21T20:25:35;23.60;50.53
68844;DHT22;55850;51.244;6.824;2022-08-21T20:30:41;23.61;50.59
68844;DHT22;55850;51.244;6.824;2022-08-21T20:35:48;23.54;51.14
68844;DHT22;55850;51.244;6.824;2022-08-21T20:40:57;23.61;50.88
68844;DHT22;55850;51.244;6.824;2022-08-21T20:46:04;23.47;51.14
68844;DHT22;55850;51.244;6.824;2022-08-21T20:51:18;23.33;51.03
68844;DHT22;55850;51.244;6.824;2022-08-21T20:56:35;23.30;51.49
68844;DHT22;55850;51.244;6.824;2022-08-21T21:01:45;23.27;51.76
68844;DHT22;55850;51.244;6.824;2022-08-21T21:06:51;23.34;51.86
68844;DHT22;55850;51.244;6.824;2022-08-21T21:12:06;23.37;51.90
68844;DHT22;55850;51.244;6.824;2022-08-21T21:17:16;23.20;52.25
68844;DHT22;55850;51.244;6.824;2022-08-21T21:22:33;23.23;52.22
68844;DHT22;55850;51.244;6.824;2022-08-21T21:27:46;23.30;52.01
68844;DHT22;55850;51.244;6.824;2022-08-21T21:32:55;23.34;52.07
68844;DHT22;55850;51.244;6.824;2022-08-21T21:38:07;23.15;52.49
68844;DHT22;55850;51.244;6.824;2022-08-21T21:43:26;23.06;52.68
68844;DHT22;55850;51.244;6.824;2022-08-21T21:48:47;23.19;52.56
68844;DHT22;55850;51.244;6.824;2022-08-21T21:54:03;23.18;52.55
68844;DHT22;55850;51.244;6.824;2022-08-21T21:59:34;23.56;52.08
68844;DHT22;55850;51.244;6.824;2022-08-21T22:04:51;23.47;52.16
68844;DHT22;55850;51.244;6.824;2022-08-21T22:10:05;23.49;52.36
68844;DHT22;55850;51.244;6.824;2022-08-21T22:15:35;23.27;53.11
68844;DHT22;55850;51.244;6.824;2022-08-21T22:20:48;23.40;52.77
68844;DHT22;55850;51.244;6.824;2022-08-21T22:26:01;23.49;52.74
68844;DHT22;55850;51.244;6.824;2022-08-21T22:31:17;23.23;53.42
68844;DHT22;55850;51.244;6.824;2022-08-21T22:36:23;23.03;53.95
68844;DHT22;55850;51.244;6.824;2022-08-21T22:41:30;23.12;53.84
68844;DHT22;55850;51.244;6.824;2022-08-21T22:46:49;22.98;54.38
68844;DHT22;55850;51.244;6.824;2022-08-21T22:52:07;22.91;54.55
68844;DHT22;55850;51.244;6.824;2022-08-21T22:57:22;22.99;54.93
68844;DHT22;55850;51.244;6.824;2022-08-21T23:02:36;22.98;54.63
68844;DHT22;55850;51.244;6.824;2022-08-21T23:07:44;22.98;54.78
68844;DHT22;55850;51.244;6.824;2022-08-21T23:12:54;23.06;54.61
68844;DHT22;55850;51.244;6.824;2022-08-21T23:18:10;23.03;54.85
68844;DHT22;55850;51.244;6.824;2022-08-21T23:23:22;23.31;54.28
68844;DHT22;55850;51.244;6.824;2022-08-21T23:28:43;22.94;55.39
68844;DHT22;55850;51.244;6.824;2022-08-21T23:34:11;23.10;54.95
68844;DHT22;55850;51.244;6.824;2022-08-21T23:39:32;23.10;55.01
68844;DHT22;55850;51.244;6.824;2022-08-21T23:44:50;22.91;55.44
68844;DHT22;55850;51.244;6.824;2022-08-21T23:50:04;22.75;55.94
68844;DHT22;55850;51.244;6.824;2022-08-21T23:55:33;22.43;56.47
